Terminal Aerodrome Forecast
Issued by NWS Sterling, VA

Current Version | Previous Version | Graphics & Text | Print | Product List | Glossary On
Versions: 1 2 3 4 5 6 7 8 9 10 11 12 13 14 15 16 17 18 19 20 21 22 23 24 25 26 27 28
000
FTUS41 KLWX 300540
TAFDCA
TAF
KDCA 300540Z 3006/3106 19006KT P6SM SCT110
     FM301100 20005KT 6SM BR BKN110
     FM301800 22009KT 6SM SHRA VCTS BKN040CB
     FM310100 29006KT P6SM BKN050
     FM310300 VRB03KT P6SM SCT100=

USA.gov is the U.S. government's official web portal to all federal, state and local government web resources and services.